createdAt,value
2023-03-12T00:02:49.268Z,1.90
2023-03-12T00:07:51.738Z,1.90
2023-03-12T00:12:55.458Z,1.90
2023-03-12T00:17:57.443Z,1.90
2023-03-12T00:22:59.494Z,1.80
2023-03-12T00:28:03.372Z,1.70
2023-03-12T00:33:05.970Z,1.70
2023-03-12T00:38:08.449Z,1.60
2023-03-12T00:43:12.687Z,1.60
2023-03-12T00:48:15.167Z,1.60
2023-03-12T00:53:17.257Z,1.60
2023-03-12T00:58:20.875Z,1.60
2023-03-12T01:03:23.105Z,1.60
2023-03-12T01:08:26.429Z,1.60
2023-03-12T01:13:30.142Z,1.50
2023-03-12T01:18:32.720Z,1.50
2023-03-12T01:23:35.051Z,1.50
2023-03-12T01:28:38.610Z,1.50
2023-03-12T01:33:40.528Z,1.60
2023-03-12T01:38:42.873Z,1.60
2023-03-12T01:43:46.919Z,1.60
2023-03-12T01:48:52.774Z,1.70
2023-03-12T01:53:59.512Z,1.70
2023-03-12T01:59:06.832Z,1.70
2023-03-12T02:04:09.174Z,1.60
2023-03-12T02:09:12.813Z,1.60
2023-03-12T02:14:16.690Z,1.50
2023-03-12T02:19:27.281Z,1.40
2023-03-12T02:24:35.819Z,1.40
2023-03-12T02:29:42.324Z,1.30
2023-03-12T02:34:44.680Z,1.20
2023-03-12T02:39:57.490Z,1.20
2023-03-12T02:45:03.104Z,1.30
2023-03-12T02:50:05.390Z,1.30
2023-03-12T02:55:08.336Z,1.30
2023-03-12T03:00:14.506Z,1.40
2023-03-12T03:05:16.873Z,1.40
2023-03-12T03:10:19.226Z,1.40
2023-03-12T03:15:23.113Z,1.30
2023-03-12T03:20:26.851Z,1.40
2023-03-12T03:25:29.528Z,1.30
2023-03-12T03:30:33.139Z,1.40
2023-03-12T03:35:35.857Z,1.30
2023-03-12T03:40:38.280Z,1.30
2023-03-12T03:45:41.741Z,1.40
2023-03-12T03:50:44.205Z,1.40
2023-03-12T03:55:46.576Z,1.50
2023-03-12T04:00:50.343Z,1.60
2023-03-12T04:05:56.532Z,1.60
2023-03-12T04:10:58.461Z,1.60
2023-03-12T04:16:01.720Z,1.60
2023-03-12T04:21:03.950Z,1.70
2023-03-12T04:26:06.882Z,1.70
2023-03-12T04:31:11.814Z,1.70
2023-03-12T04:36:14.797Z,1.80
2023-03-12T04:41:17.808Z,1.80
2023-03-12T04:46:21.394Z,1.90
2023-03-12T04:51:23.534Z,1.90
2023-03-12T04:56:25.805Z,1.80
2023-03-12T05:01:31.544Z,1.90
2023-03-12T05:06:33.897Z,1.90
2023-03-12T05:11:39.150Z,2.00
2023-03-12T05:16:43.304Z,2.10
2023-03-12T05:21:45.447Z,2.40
2023-03-12T05:26:47.692Z,2.60
2023-03-12T05:31:52.468Z,2.60
2023-03-12T05:36:54.597Z,2.50
2023-03-12T05:41:57.442Z,2.30
2023-03-12T05:47:00.720Z,2.30
2023-03-12T05:52:02.889Z,2.30
2023-03-12T05:57:04.763Z,2.40
2023-03-12T06:02:08.615Z,2.50
2023-03-12T06:07:11.097Z,2.60
2023-03-12T06:12:13.120Z,2.60
2023-03-12T06:17:16.892Z,2.70
2023-03-12T06:22:19.197Z,2.80
2023-03-12T06:27:21.452Z,2.90
2023-03-12T06:32:25.076Z,2.80
2023-03-12T06:37:27.450Z,3.00
2023-03-12T06:42:29.672Z,3.00
2023-03-12T06:47:33.836Z,3.00
2023-03-12T06:52:36.218Z,3.10
2023-03-12T06:57:38.833Z,3.10
2023-03-12T07:02:42.366Z,3.10
2023-03-12T07:07:44.272Z,3.10
2023-03-12T07:12:47.320Z,3.10
2023-03-12T07:17:51.588Z,3.20
2023-03-12T07:22:53.884Z,3.30
2023-03-12T07:27:56.426Z,3.50
2023-03-12T07:32:59.990Z,3.90
2023-03-12T07:38:03.222Z,4.10
2023-03-12T07:43:11.193Z,4.00
2023-03-12T07:48:14.930Z,4.00
2023-03-12T07:53:17.910Z,4.00
2023-03-12T07:58:20.192Z,4.10
2023-03-12T08:03:24.115Z,4.10
2023-03-12T08:08:26.749Z,4.20
2023-03-12T08:13:29.397Z,4.10
2023-03-12T08:18:33.220Z,3.60
2023-03-12T08:23:35.857Z,3.80
2023-03-12T08:28:38.328Z,4.00
2023-03-12T08:33:43.760Z,4.10
2023-03-12T08:38:46.069Z,4.30
2023-03-12T08:43:48.241Z,4.50
2023-03-12T08:48:52.117Z,4.70
2023-03-12T08:53:54.092Z,4.70
2023-03-12T08:58:56.394Z,4.80
2023-03-12T09:04:00.582Z,4.80
2023-03-12T09:09:05.198Z,4.90
2023-03-12T09:15:00.997Z,4.90
2023-03-12T09:19:31.196Z,4.90
2023-03-12T09:24:33.432Z,4.80
2023-03-12T09:29:41.382Z,4.90
2023-03-12T09:34:50.186Z,5.20
2023-03-12T09:39:52.857Z,5.50
2023-03-12T09:44:58.562Z,5.40
2023-03-12T09:50:07.169Z,5.40
2023-03-12T09:55:15.184Z,5.60
2023-03-12T10:00:20.117Z,5.50
2023-03-12T10:05:32.851Z,5.60
2023-03-12T10:10:55.542Z,5.70
2023-03-12T10:16:11.950Z,5.80
2023-03-12T10:21:23.594Z,5.80
2023-03-12T10:26:27.562Z,6.00
2023-03-12T10:31:33.439Z,5.80
2023-03-12T10:37:11.460Z,5.70
2023-03-12T10:42:45.208Z,5.80
2023-03-12T10:48:08.929Z,5.80
2023-03-12T10:53:55.442Z,5.90
2023-03-12T10:59:00.208Z,6.10
2023-03-12T11:04:15.883Z,6.10
2023-03-12T11:09:20.322Z,6.20
2023-03-12T11:14:26.253Z,6.20
2023-03-12T11:19:31.302Z,6.30
2023-03-12T11:24:33.637Z,6.10
2023-03-12T11:29:40.438Z,6.00
2023-03-12T11:34:43.562Z,6.00
2023-03-12T11:40:10.316Z,6.00
2023-03-12T11:45:24.205Z,5.90
2023-03-12T11:50:47.096Z,6.10
2023-03-12T11:56:04.289Z,6.20
2023-03-12T12:01:14.484Z,6.10
2023-03-12T12:06:24.195Z,6.30
2023-03-12T12:11:34.790Z,6.40
2023-03-12T12:16:53.184Z,6.40
2023-03-12T12:22:10.892Z,6.50
2023-03-12T12:27:21.606Z,6.30
2023-03-12T12:32:34.540Z,6.30
2023-03-12T12:37:47.912Z,6.30
2023-03-12T12:42:58.096Z,6.40
2023-03-12T12:48:08.125Z,6.60
2023-03-12T12:53:21.927Z,6.80
2023-03-12T12:58:32.678Z,7.00
2023-03-12T13:03:38.440Z,7.10
2023-03-12T13:09:17.451Z,7.40
2023-03-12T13:14:41.476Z,7.60
2023-03-12T13:19:55.620Z,7.90
2023-03-12T13:25:13.676Z,7.50
2023-03-12T13:30:48.517Z,7.30
2023-03-12T13:36:12.370Z,7.30
2023-03-12T13:41:34.100Z,7.30
2023-03-12T13:46:45.784Z,7.30
2023-03-12T13:52:00.164Z,7.30
2023-03-12T13:57:06.435Z,7.30
2023-03-12T14:02:18.885Z,7.50
2023-03-12T14:07:52.891Z,7.70
2023-03-12T14:13:03.565Z,7.90
2023-03-12T14:18:15.093Z,7.80
2023-03-12T14:23:19.290Z,7.90
2023-03-12T14:28:24.297Z,7.90
2023-03-12T14:33:28.767Z,8.10
2023-03-12T14:38:35.625Z,8.20
2023-03-12T14:43:38.614Z,8.30
2023-03-12T14:48:40.744Z,8.20
2023-03-12T14:53:44.576Z,8.10
2023-03-12T14:58:48.838Z,8.20
2023-03-12T15:03:58.016Z,8.30
2023-03-12T15:09:06.335Z,8.40
2023-03-12T15:14:11.589Z,8.40
2023-03-12T15:19:15.416Z,8.50
2023-03-12T15:24:20.278Z,8.60
2023-03-12T15:29:29.722Z,8.80
2023-03-12T15:34:34.291Z,9.00
2023-03-12T15:39:41.069Z,9.20
2023-03-12T15:44:47.607Z,9.30
2023-03-12T15:49:53.359Z,9.30
2023-03-12T15:55:09.882Z,10.80
2023-03-12T16:00:23.392Z,10.90
2023-03-12T16:05:29.467Z,11.80
2023-03-12T16:10:39.300Z,11.00
2023-03-12T16:15:42.155Z,11.40
2023-03-12T16:20:46.863Z,11.20
2023-03-12T16:25:55.025Z,11.50
2023-03-12T16:30:58.245Z,10.30
2023-03-12T16:36:01.739Z,9.80
2023-03-12T16:41:08.124Z,9.30
2023-03-12T16:46:11.914Z,9.10
2023-03-12T16:51:27.411Z,8.90
2023-03-12T16:56:32.652Z,8.70
2023-03-12T17:01:36.064Z,8.60
2023-03-12T17:06:40.668Z,8.50
2023-03-12T17:11:45.404Z,8.40
2023-03-12T17:16:48.727Z,8.30
2023-03-12T17:21:52.798Z,8.40
2023-03-12T17:26:59.995Z,8.40
2023-03-12T17:32:03.888Z,8.40
2023-03-12T17:37:08.090Z,8.50
2023-03-12T17:42:13.158Z,8.60
2023-03-12T17:47:17.023Z,8.60
2023-03-12T17:52:22.878Z,8.70
2023-03-12T17:57:27.638Z,8.80
2023-03-12T18:02:30.772Z,8.70
2023-03-12T18:07:37.361Z,8.70
2023-03-12T18:12:43.511Z,9.00
2023-03-12T18:17:51.430Z,8.90
2023-03-12T18:22:56.152Z,9.00
2023-03-12T18:28:00.962Z,8.90
2023-03-12T18:33:06.955Z,8.90
2023-03-12T18:38:10.691Z,8.70
2023-03-12T18:43:16.565Z,8.60
2023-03-12T18:48:21.999Z,8.60
2023-03-12T18:53:26.939Z,8.40
2023-03-12T18:58:32.911Z,8.60
2023-03-12T19:03:41.657Z,8.60
2023-03-12T19:08:45.618Z,8.30
2023-03-12T19:13:57.077Z,7.90
2023-03-12T19:19:02.044Z,7.70
2023-03-12T19:24:09.356Z,7.60
2023-03-12T19:29:15.858Z,7.40
2023-03-12T19:34:22.772Z,7.20
2023-03-12T19:39:27.153Z,7.20
2023-03-12T19:44:34.738Z,7.10
2023-03-12T19:49:38.990Z,7.00
2023-03-12T19:54:44.074Z,6.90
2023-03-12T19:59:53.340Z,7.10
2023-03-12T20:04:58.649Z,7.20
2023-03-12T20:10:02.891Z,7.40
2023-03-12T20:15:08.889Z,7.70
2023-03-12T20:20:15.157Z,7.60
2023-03-12T20:25:24.669Z,7.90
2023-03-12T20:30:34.377Z,7.90
2023-03-12T20:35:38.854Z,7.70
2023-03-12T20:40:46.614Z,7.20
2023-03-12T20:45:51.719Z,6.70
2023-03-12T20:50:59.764Z,6.50
2023-03-12T20:56:07.007Z,6.60
2023-03-12T21:01:14.522Z,6.80
2023-03-12T21:06:18.465Z,6.70
2023-03-12T21:11:22.060Z,6.70
2023-03-12T21:16:27.594Z,6.60
2023-03-12T21:21:30.747Z,7.00
2023-03-12T21:26:33.816Z,6.80
2023-03-12T21:31:38.454Z,6.50
2023-03-12T21:36:40.889Z,6.30
2023-03-12T21:41:43.346Z,6.10
2023-03-12T21:46:48.056Z,5.80
2023-03-12T21:51:50.464Z,5.60
2023-03-12T21:56:52.992Z,5.30
2023-03-12T22:01:56.908Z,5.20
2023-03-12T22:06:59.509Z,5.20
2023-03-12T22:12:01.688Z,5.90
2023-03-12T22:17:05.312Z,6.50
2023-03-12T22:22:07.929Z,6.60
2023-03-12T22:27:10.078Z,6.30
2023-03-12T22:32:13.582Z,6.20
2023-03-12T22:37:15.462Z,5.90
2023-03-12T22:42:17.899Z,5.60
2023-03-12T22:47:21.740Z,5.70
2023-03-12T22:52:24.218Z,5.80
2023-03-12T22:57:26.402Z,6.20
2023-03-12T23:02:30.434Z,6.50
2023-03-12T23:07:32.465Z,6.60
2023-03-12T23:12:34.943Z,6.70
2023-03-12T23:17:39.022Z,6.80
2023-03-12T23:22:41.330Z,6.80
2023-03-12T23:27:43.703Z,6.70
2023-03-12T23:32:47.320Z,6.50
2023-03-12T23:37:50.473Z,6.40
2023-03-12T23:42:52.344Z,6.30
2023-03-12T23:47:56.178Z,6.30
2023-03-12T23:52:58.229Z,6.60
2023-03-12T23:58:00.720Z,6.90
